createdAt,value
2019-05-18T00:01:26.179Z,34.23
2019-05-18T00:03:55.126Z,30.50
2019-05-18T00:06:24.685Z,29.90
2019-05-18T00:08:53.397Z,29.92
2019-05-18T00:11:22.084Z,31.62
2019-05-18T00:13:51.034Z,30.95
2019-05-18T00:16:19.796Z,30.95
2019-05-18T00:18:48.488Z,32.33
2019-05-18T00:21:17.166Z,32.73
2019-05-18T00:23:45.880Z,32.95
2019-05-18T00:26:14.572Z,31.73
2019-05-18T00:28:43.543Z,30.88
2019-05-18T00:31:12.521Z,33.67
2019-05-18T00:33:41.482Z,31.70
2019-05-18T00:36:10.189Z,31.07
2019-05-18T00:38:38.887Z,35.20
2019-05-18T00:41:07.574Z,35.00
2019-05-18T00:43:36.340Z,36.68
2019-05-18T00:46:05.597Z,35.20
2019-05-18T00:48:34.315Z,34.48
2019-05-18T00:51:03.032Z,34.43
2019-05-18T00:53:31.868Z,35.70
2019-05-18T00:56:00.576Z,34.03
2019-05-18T00:58:29.524Z,35.35
2019-05-18T01:00:58.224Z,34.03
2019-05-18T01:03:27.422Z,34.92
2019-05-18T01:05:56.429Z,38.20
2019-05-18T01:08:25.978Z,37.98
2019-05-18T01:10:57.492Z,31.17
2019-05-18T01:13:28.906Z,36.55
2019-05-18T01:15:57.855Z,35.90
2019-05-18T01:18:26.790Z,38.10
2019-05-18T01:20:55.492Z,37.60
2019-05-18T01:23:24.427Z,34.90
2019-05-18T01:25:53.368Z,37.03
2019-05-18T01:28:22.070Z,37.83
2019-05-18T01:30:50.937Z,37.42
2019-05-18T01:33:19.685Z,38.02
2019-05-18T01:35:48.376Z,37.73
2019-05-18T01:38:17.572Z,33.75
2019-05-18T01:40:46.264Z,39.00
2019-05-18T01:43:15.197Z,37.13
2019-05-18T01:45:43.920Z,38.50
2019-05-18T01:48:14.530Z,35.90
2019-05-18T01:50:43.547Z,37.98
2019-05-18T01:53:12.302Z,34.90
2019-05-18T01:55:41.233Z,33.40
2019-05-18T01:58:10.147Z,36.77
2019-05-18T02:00:38.834Z,35.88
2019-05-18T02:03:07.587Z,41.28
2019-05-18T02:05:36.522Z,37.38
2019-05-18T02:08:05.517Z,39.70
2019-05-18T02:10:34.235Z,38.35
2019-05-18T02:13:03.048Z,39.20
2019-05-18T02:15:32.320Z,40.80
2019-05-18T02:18:01.242Z,41.60
2019-05-18T02:20:29.967Z,38.28
2019-05-18T02:22:58.894Z,35.85
2019-05-18T02:25:27.845Z,37.80
2019-05-18T02:27:56.773Z,35.10
2019-05-18T02:30:26.004Z,38.70
2019-05-18T02:32:54.924Z,40.38
2019-05-18T02:35:23.611Z,42.90
2019-05-18T02:37:54.192Z,43.98
2019-05-18T02:40:22.882Z,39.70
2019-05-18T02:42:51.872Z,39.08
2019-05-18T02:45:20.961Z,44.27
2019-05-18T02:47:49.896Z,37.98
2019-05-18T02:50:18.732Z,36.98
2019-05-18T02:52:47.633Z,38.17
2019-05-18T02:55:16.459Z,40.98
2019-05-18T02:57:45.370Z,38.48
2019-05-18T03:00:17.346Z,35.88
2019-05-18T03:02:46.045Z,35.25
2019-05-18T03:05:15.131Z,36.30
2019-05-18T03:07:44.302Z,35.13
2019-05-18T03:10:13.079Z,53.63
2019-05-18T03:12:41.827Z,62.05
2019-05-18T03:15:10.921Z,44.30
2019-05-18T03:17:39.944Z,39.55
2019-05-18T03:20:09.147Z,44.58
2019-05-18T03:22:37.977Z,35.55
2019-05-18T03:25:06.920Z,38.85
2019-05-18T03:27:35.924Z,41.77
2019-05-18T03:30:05.069Z,39.92
2019-05-18T03:32:34.027Z,43.02
2019-05-18T03:35:02.944Z,39.55
2019-05-18T03:37:31.627Z,40.15
2019-05-18T03:40:00.401Z,41.58
2019-05-18T03:42:29.145Z,44.58
2019-05-18T03:44:58.176Z,43.48
2019-05-18T03:47:29.652Z,45.75
2019-05-18T03:49:58.353Z,34.00
2019-05-18T03:52:27.277Z,37.35
2019-05-18T03:54:56.211Z,42.95
2019-05-18T03:57:27.643Z,37.67
2019-05-18T03:59:56.371Z,44.30
2019-05-18T04:02:26.204Z,39.33
2019-05-18T04:04:55.139Z,36.13
2019-05-18T04:07:24.412Z,43.85
2019-05-18T04:09:53.093Z,38.50
2019-05-18T04:12:22.032Z,40.35
2019-05-18T04:14:52.303Z,35.90
2019-05-18T04:17:21.422Z,39.42
2019-05-18T04:19:50.460Z,40.73
2019-05-18T04:22:19.403Z,41.65
2019-05-18T04:24:48.095Z,35.10
2019-05-18T04:27:17.518Z,37.13
2019-05-18T04:29:46.688Z,38.78
2019-05-18T04:32:15.850Z,33.98
2019-05-18T04:34:44.563Z,40.30
2019-05-18T04:37:13.525Z,36.35
2019-05-18T04:39:42.205Z,36.17
2019-05-18T04:42:10.898Z,39.73
2019-05-18T04:44:40.063Z,36.77
2019-05-18T04:47:09.005Z,39.23
2019-05-18T04:49:38.178Z,40.75
2019-05-18T04:52:06.950Z,36.35
2019-05-18T04:54:35.628Z,35.60
2019-05-18T04:57:04.568Z,43.90
2019-05-18T04:59:33.250Z,41.25
2019-05-18T05:02:01.943Z,38.92
2019-05-18T05:04:30.852Z,39.58
2019-05-18T05:06:59.768Z,37.50
2019-05-18T05:09:28.477Z,38.60
2019-05-18T05:11:57.638Z,43.20
2019-05-18T05:14:26.340Z,40.25
2019-05-18T05:16:55.280Z,38.35
2019-05-18T05:19:24.469Z,41.28
2019-05-18T05:21:53.884Z,37.00
2019-05-18T05:24:22.615Z,37.40
2019-05-18T05:26:51.341Z,39.08
2019-05-18T05:29:20.323Z,38.90
2019-05-18T05:31:49.480Z,33.33
2019-05-18T05:34:18.421Z,35.58
2019-05-18T05:36:47.352Z,32.48
2019-05-18T05:39:16.543Z,33.28
2019-05-18T05:41:45.224Z,33.15
2019-05-18T05:44:14.269Z,33.48
2019-05-18T05:46:43.442Z,32.15
2019-05-18T05:49:12.135Z,31.90
2019-05-18T05:51:41.051Z,29.40
2019-05-18T05:54:09.752Z,28.98
2019-05-18T05:56:38.702Z,31.37
2019-05-18T05:59:07.646Z,29.40
2019-05-18T06:01:36.318Z,30.48
2019-05-18T06:04:05.154Z,28.77
2019-05-18T06:06:34.645Z,31.12
2019-05-18T06:09:05.317Z,30.50
2019-05-18T06:11:34.247Z,29.10
2019-05-18T06:14:03.704Z,26.42
2019-05-18T06:16:32.390Z,30.70
2019-05-18T06:19:01.123Z,26.57
2019-05-18T06:21:30.052Z,27.87
2019-05-18T06:23:58.982Z,27.93
2019-05-18T06:26:27.658Z,28.32
2019-05-18T06:28:56.337Z,26.97
2019-05-18T06:31:25.021Z,25.60
2019-05-18T06:33:53.935Z,32.25
2019-05-18T06:36:22.702Z,26.75
2019-05-18T06:38:51.393Z,24.52
2019-05-18T06:41:20.207Z,28.55
2019-05-18T06:43:48.890Z,24.55
2019-05-18T06:46:17.611Z,22.57
2019-05-18T06:48:46.340Z,23.25
2019-05-18T06:51:15.102Z,27.62
2019-05-18T06:53:47.220Z,25.77
2019-05-18T06:56:16.897Z,22.27
2019-05-18T06:58:47.051Z,21.87
2019-05-18T07:01:15.741Z,23.35
2019-05-18T07:03:45.189Z,21.75
2019-05-18T07:06:14.319Z,21.97
2019-05-18T07:08:43.056Z,21.70
2019-05-18T07:11:12.188Z,21.77
2019-05-18T07:13:40.895Z,22.80
2019-05-18T07:16:09.831Z,20.20
2019-05-18T07:18:38.793Z,19.40
2019-05-18T07:21:21.360Z,20.43
2019-05-18T07:23:38.198Z,18.10
2019-05-18T07:26:07.148Z,18.17
2019-05-18T07:28:36.096Z,17.87
2019-05-18T07:31:04.930Z,17.02
2019-05-18T07:33:33.886Z,16.73
2019-05-18T07:36:02.814Z,16.17
2019-05-18T07:38:31.504Z,16.82
2019-05-18T07:41:00.452Z,15.32
2019-05-18T07:43:30.765Z,16.02
2019-05-18T07:45:59.470Z,16.70
2019-05-18T07:48:28.202Z,14.85
2019-05-18T07:50:57.395Z,14.98
2019-05-18T07:53:26.084Z,15.25
2019-05-18T07:55:55.031Z,15.68
2019-05-18T07:58:23.991Z,13.48
2019-05-18T08:00:52.693Z,13.68
2019-05-18T08:03:21.370Z,12.65
2019-05-18T08:05:50.137Z,12.75
2019-05-18T08:08:19.216Z,11.90
2019-05-18T08:10:47.904Z,13.53
2019-05-18T08:13:16.614Z,9.35
2019-05-18T08:15:45.330Z,6.78
2019-05-18T08:18:14.565Z,10.18
2019-05-18T08:20:46.091Z,11.20
2019-05-18T08:23:14.769Z,9.85
2019-05-18T08:25:43.529Z,12.43
2019-05-18T08:28:12.325Z,9.48
2019-05-18T08:30:41.248Z,10.32
2019-05-18T08:33:10.891Z,10.25
2019-05-18T08:35:40.313Z,9.95
2019-05-18T08:38:09.081Z,7.37
2019-05-18T08:40:39.572Z,7.62
2019-05-18T08:43:09.157Z,8.50
2019-05-18T08:45:38.005Z,6.53
2019-05-18T08:48:06.924Z,5.97
2019-05-18T08:50:35.615Z,4.53
2019-05-18T08:53:06.862Z,6.78
2019-05-18T08:55:36.449Z,8.93
2019-05-18T08:58:05.238Z,7.65
2019-05-18T09:00:34.383Z,6.87
2019-05-18T09:03:03.069Z,7.00
2019-05-18T09:05:32.267Z,6.78
2019-05-18T09:08:01.127Z,6.30
2019-05-18T09:10:29.825Z,6.15
2019-05-18T09:12:58.529Z,7.08
2019-05-18T09:15:27.215Z,4.92
2019-05-18T09:17:55.925Z,14.87
2019-05-18T09:20:24.896Z,9.78
2019-05-18T09:22:54.259Z,7.80
2019-05-18T09:25:23.222Z,5.80
2019-05-18T09:27:52.350Z,6.60
2019-05-18T09:30:21.278Z,7.37
2019-05-18T09:32:51.264Z,7.95
2019-05-18T09:35:20.203Z,6.92
2019-05-18T09:37:49.587Z,6.25
2019-05-18T09:40:18.919Z,10.80
2019-05-18T09:42:47.828Z,9.48
2019-05-18T09:45:17.281Z,8.88
2019-05-18T09:47:46.151Z,7.35
2019-05-18T09:50:17.431Z,6.22
2019-05-18T09:52:46.703Z,6.37
2019-05-18T09:55:15.791Z,6.50
2019-05-18T09:57:44.498Z,6.10
2019-05-18T10:00:14.207Z,5.83
2019-05-18T10:03:03.464Z,11.45
2019-05-18T10:05:32.824Z,7.87
2019-05-18T10:08:01.854Z,6.00
2019-05-18T10:10:33.665Z,6.15
2019-05-18T10:13:01.740Z,5.40
2019-05-18T10:15:30.659Z,5.75
2019-05-18T10:18:00.764Z,9.18
2019-05-18T10:20:41.309Z,6.72
2019-05-18T10:23:13.698Z,8.63
2019-05-18T10:25:41.626Z,6.03
2019-05-18T10:28:11.712Z,5.35
2019-05-18T10:30:40.654Z,5.65
2019-05-18T10:33:09.772Z,6.53
2019-05-18T10:35:46.602Z,5.47
2019-05-18T10:38:16.469Z,5.50
2019-05-18T10:40:45.127Z,6.20
2019-05-18T10:43:13.970Z,6.05
2019-05-18T10:45:45.064Z,6.33
2019-05-18T10:48:13.604Z,6.33
2019-05-18T10:50:43.377Z,6.03
2019-05-18T10:53:27.507Z,8.48
2019-05-18T10:55:42.542Z,6.30
2019-05-18T10:58:12.004Z,6.42
2019-05-18T11:00:40.699Z,7.40
2019-05-18T11:03:09.457Z,6.28
2019-05-18T11:05:38.127Z,7.62
2019-05-18T11:08:07.096Z,6.50
2019-05-18T11:10:35.773Z,5.80
2019-05-18T11:13:04.792Z,6.37
2019-05-18T11:15:33.820Z,6.47
2019-05-18T11:18:02.791Z,7.37
2019-05-18T11:20:31.605Z,8.40
2019-05-18T11:23:00.561Z,6.72
2019-05-18T11:25:29.245Z,7.22
2019-05-18T11:27:57.930Z,7.65
2019-05-18T11:30:26.842Z,6.72
2019-05-18T11:32:55.632Z,6.67
2019-05-18T11:35:24.710Z,7.60
2019-05-18T11:37:53.406Z,7.83
2019-05-18T11:40:22.273Z,8.60
2019-05-18T11:42:50.979Z,6.30
2019-05-18T11:45:20.615Z,6.08
2019-05-18T11:47:49.366Z,6.30
2019-05-18T11:50:18.669Z,5.47
2019-05-18T11:52:47.421Z,6.42
2019-05-18T11:55:18.415Z,5.80
2019-05-18T11:57:47.116Z,11.90
2019-05-18T12:00:16.889Z,7.20
2019-05-18T12:02:45.644Z,7.90
2019-05-18T12:05:14.657Z,5.85
2019-05-18T12:07:43.638Z,6.72
2019-05-18T12:10:12.933Z,6.40
2019-05-18T12:12:41.623Z,6.17
2019-05-18T12:15:11.050Z,7.53
2019-05-18T12:17:40.113Z,6.10
2019-05-18T12:20:09.464Z,5.83
2019-05-18T12:22:38.529Z,7.00
2019-05-18T12:25:07.296Z,6.33
2019-05-18T12:27:36.106Z,7.67
2019-05-18T12:30:05.483Z,6.50
2019-05-18T12:32:37.416Z,6.35
2019-05-18T12:35:06.632Z,5.78
2019-05-18T12:37:37.366Z,7.17
2019-05-18T12:40:06.861Z,6.33
2019-05-18T12:42:35.850Z,5.90
2019-05-18T12:45:08.349Z,9.65
2019-05-18T12:47:39.524Z,7.20
2019-05-18T12:50:10.469Z,6.50
2019-05-18T12:52:39.161Z,5.78
2019-05-18T12:55:08.685Z,5.65
2019-05-18T12:57:37.783Z,7.40
2019-05-18T13:00:08.241Z,8.98
2019-05-18T13:02:36.906Z,5.78
2019-05-18T13:05:07.223Z,5.78
2019-05-18T13:07:36.063Z,6.42
2019-05-18T13:10:05.467Z,6.87
2019-05-18T13:12:34.145Z,6.60
2019-05-18T13:15:03.242Z,5.95
2019-05-18T13:17:31.922Z,6.62
2019-05-18T13:20:00.739Z,7.83
2019-05-18T13:22:29.368Z,6.67
2019-05-18T13:24:58.301Z,5.20
2019-05-18T13:27:38.767Z,10.48
2019-05-18T13:29:59.333Z,5.85
2019-05-18T13:32:28.243Z,6.20
2019-05-18T13:34:57.443Z,5.92
2019-05-18T13:37:26.122Z,6.17
2019-05-18T13:39:54.809Z,5.47
2019-05-18T13:42:23.478Z,6.12
2019-05-18T13:44:52.430Z,5.78
2019-05-18T13:47:21.116Z,4.87
2019-05-18T13:49:49.827Z,5.83
2019-05-18T13:52:18.740Z,5.62
2019-05-18T13:55:02.242Z,5.17
2019-05-18T13:57:18.144Z,4.80
2019-05-18T13:59:47.418Z,5.58
2019-05-18T14:02:16.158Z,6.90
2019-05-18T14:04:44.858Z,7.00
2019-05-18T14:07:13.854Z,5.22
2019-05-18T14:09:42.791Z,7.70
2019-05-18T14:12:11.705Z,5.60
2019-05-18T14:14:40.406Z,5.92
2019-05-18T14:17:09.084Z,6.35
2019-05-18T14:19:38.024Z,5.70
2019-05-18T14:22:06.933Z,6.20
2019-05-18T14:24:35.875Z,5.22
2019-05-18T14:27:04.631Z,6.85
2019-05-18T14:29:33.328Z,6.20
2019-05-18T14:32:02.242Z,5.90
2019-05-18T14:34:31.200Z,5.20
2019-05-18T14:37:00.133Z,4.83
2019-05-18T14:39:28.894Z,5.65
2019-05-18T14:41:57.818Z,5.78
2019-05-18T14:44:26.779Z,6.42
2019-05-18T14:46:55.993Z,6.15
2019-05-18T14:49:25.245Z,6.78
2019-05-18T14:51:54.321Z,13.83
2019-05-18T14:54:25.519Z,7.12
2019-05-18T14:56:54.827Z,5.90
2019-05-18T14:59:23.805Z,5.60
2019-05-18T15:01:52.923Z,6.65
2019-05-18T15:04:21.713Z,6.50
2019-05-18T15:06:50.707Z,6.55
2019-05-18T15:09:19.425Z,6.67
2019-05-18T15:11:48.112Z,6.12
2019-05-18T15:14:17.033Z,6.37
2019-05-18T15:16:45.973Z,8.85
2019-05-18T15:19:14.930Z,6.12
2019-05-18T15:21:46.048Z,5.53
2019-05-18T15:24:15.464Z,6.53
2019-05-18T15:26:44.397Z,6.40
2019-05-18T15:29:13.356Z,6.65
2019-05-18T15:31:42.059Z,6.10
2019-05-18T15:34:11.087Z,5.87
2019-05-18T15:36:39.811Z,5.03
2019-05-18T15:39:11.117Z,5.60
2019-05-18T15:41:39.807Z,4.92
2019-05-18T15:44:08.455Z,6.30
2019-05-18T15:46:37.910Z,5.60
2019-05-18T15:49:06.659Z,5.20
2019-05-18T15:51:35.395Z,6.35
2019-05-18T15:54:04.087Z,5.22
2019-05-18T15:56:32.771Z,5.40
2019-05-18T15:59:01.529Z,13.00
2019-05-18T16:01:30.311Z,4.58
2019-05-18T16:03:58.975Z,5.10
2019-05-18T16:06:27.908Z,5.78
2019-05-18T16:08:56.659Z,5.03
2019-05-18T16:11:25.430Z,5.12
2019-05-18T16:13:54.472Z,6.05
2019-05-18T16:16:23.157Z,5.05
2019-05-18T16:18:52.093Z,4.90
2019-05-18T16:21:20.791Z,4.67
2019-05-18T16:23:49.980Z,4.20
2019-05-18T16:26:21.505Z,3.95
2019-05-18T16:28:49.328Z,5.27
2019-05-18T16:31:18.015Z,4.53
2019-05-18T16:33:46.705Z,4.70
2019-05-18T16:36:15.381Z,4.72
2019-05-18T16:38:44.070Z,4.80
2019-05-18T16:41:13.010Z,4.25
2019-05-18T16:43:41.957Z,4.28
2019-05-18T16:46:10.923Z,4.60
2019-05-18T16:48:39.706Z,5.72
2019-05-18T16:51:10.191Z,4.75
2019-05-18T16:53:38.862Z,5.10
2019-05-18T16:56:07.637Z,4.47
2019-05-18T16:58:36.307Z,5.35
2019-05-18T17:01:05.335Z,4.83
2019-05-18T17:03:34.140Z,6.15
2019-05-18T17:06:03.111Z,5.25
2019-05-18T17:08:31.798Z,5.97
2019-05-18T17:11:00.469Z,5.72
2019-05-18T17:13:29.146Z,6.65
2019-05-18T17:15:57.830Z,6.65
2019-05-18T17:18:26.763Z,5.08
2019-05-18T17:20:55.879Z,5.03
2019-05-18T17:23:24.581Z,5.12
2019-05-18T17:25:53.596Z,5.28
2019-05-18T17:28:22.600Z,6.37
2019-05-18T17:30:51.303Z,5.47
2019-05-18T17:33:20.047Z,5.40
2019-05-18T17:35:59.823Z,5.55
2019-05-18T17:38:19.244Z,6.50
2019-05-18T17:40:48.191Z,5.65
2019-05-18T17:43:17.153Z,5.15
2019-05-18T17:45:48.185Z,5.40
2019-05-18T17:48:16.852Z,6.47
2019-05-18T17:50:45.817Z,5.15
2019-05-18T17:53:14.753Z,5.92
2019-05-18T17:55:43.698Z,5.65
2019-05-18T17:58:12.436Z,5.60
2019-05-18T18:00:41.389Z,5.33
2019-05-18T18:03:10.309Z,5.33
2019-05-18T18:05:39.254Z,5.05
2019-05-18T18:08:08.184Z,5.03
2019-05-18T18:10:37.104Z,5.15
2019-05-18T18:13:09.240Z,6.60
2019-05-18T18:15:36.595Z,5.20
2019-05-18T18:18:05.396Z,4.97
2019-05-18T18:20:34.086Z,5.78
2019-05-18T18:23:02.787Z,5.97
2019-05-18T18:25:31.741Z,6.17
2019-05-18T18:28:00.430Z,6.00
2019-05-18T18:30:29.184Z,5.55
2019-05-18T18:32:57.893Z,5.28
2019-05-18T18:35:26.825Z,5.80
2019-05-18T18:37:55.761Z,6.25
2019-05-18T18:40:24.523Z,6.05
2019-05-18T18:42:53.462Z,8.15
2019-05-18T18:45:22.293Z,5.50
2019-05-18T18:47:50.983Z,5.53
2019-05-18T18:50:19.749Z,5.65
2019-05-18T18:52:48.763Z,5.37
2019-05-18T18:55:17.535Z,5.85
2019-05-18T18:57:46.215Z,6.78
2019-05-18T19:00:15.398Z,6.62
2019-05-18T19:02:44.069Z,7.15
2019-05-18T19:05:13.154Z,5.78
2019-05-18T19:07:41.865Z,5.80
2019-05-18T19:10:11.003Z,5.90
2019-05-18T19:12:39.774Z,5.72
2019-05-18T19:15:10.277Z,5.87
2019-05-18T19:17:39.423Z,5.60
2019-05-18T19:20:08.540Z,5.42
2019-05-18T19:22:37.230Z,5.58
2019-05-18T19:25:06.447Z,5.17
2019-05-18T19:27:35.244Z,5.58
2019-05-18T19:30:09.352Z,4.75
2019-05-18T19:32:35.316Z,5.80
2019-05-18T19:35:03.985Z,5.05
2019-05-18T19:37:32.770Z,5.92
2019-05-18T19:40:01.453Z,5.92
2019-05-18T19:42:30.288Z,5.70
2019-05-18T19:44:59.067Z,18.07
2019-05-18T19:47:27.844Z,8.70
2019-05-18T19:49:56.836Z,7.12
2019-05-18T19:52:26.094Z,6.42
2019-05-18T19:54:54.771Z,6.08
2019-05-18T19:57:23.457Z,6.72
2019-05-18T19:59:52.377Z,6.60
2019-05-18T20:02:21.089Z,6.37
2019-05-18T20:05:06.429Z,6.70
2019-05-18T20:07:20.159Z,6.85
2019-05-18T20:09:49.083Z,6.60
2019-05-18T20:12:18.040Z,8.20
2019-05-18T20:14:46.935Z,7.83
2019-05-18T20:17:15.663Z,18.32
2019-05-18T20:19:44.366Z,16.02
2019-05-18T20:22:13.075Z,11.38
2019-05-18T20:24:41.744Z,12.05
2019-05-18T20:27:10.486Z,9.63
2019-05-18T20:29:39.180Z,10.60
2019-05-18T20:32:07.859Z,9.38
2019-05-18T20:34:36.887Z,9.15
2019-05-18T20:37:05.832Z,10.10
2019-05-18T20:39:34.809Z,8.88
2019-05-18T20:42:03.482Z,10.40
2019-05-18T20:44:32.688Z,11.68
2019-05-18T20:47:01.370Z,11.70
2019-05-18T20:49:30.055Z,10.95
2019-05-18T20:51:58.752Z,8.98
2019-05-18T20:54:27.718Z,9.00
2019-05-18T20:56:56.669Z,10.13
2019-05-18T20:59:25.868Z,9.13
2019-05-18T21:01:54.573Z,9.43
2019-05-18T21:04:23.331Z,9.65
2019-05-18T21:06:52.343Z,10.60
2019-05-18T21:09:21.056Z,10.05
2019-05-18T21:11:49.830Z,10.03
2019-05-18T21:14:18.840Z,8.83
2019-05-18T21:16:47.520Z,9.98
2019-05-18T21:19:16.216Z,10.70
2019-05-18T21:21:44.908Z,11.35
2019-05-18T21:24:13.597Z,9.78
2019-05-18T21:26:43.128Z,9.03
2019-05-18T21:29:12.242Z,8.88
2019-05-18T21:31:40.930Z,8.90
2019-05-18T21:34:11.940Z,8.05
2019-05-18T21:36:40.715Z,7.83
2019-05-18T21:39:09.791Z,7.83
2019-05-18T21:41:40.418Z,7.30
2019-05-18T21:44:09.233Z,8.08
2019-05-18T21:46:39.150Z,7.90
2019-05-18T21:49:08.408Z,7.17
2019-05-18T21:51:37.414Z,8.40
2019-05-18T21:54:06.365Z,7.62
2019-05-18T21:56:35.403Z,6.70
2019-05-18T21:59:11.672Z,7.05
2019-05-18T22:01:35.032Z,6.70
2019-05-18T22:04:03.722Z,6.58
2019-05-18T22:06:32.414Z,6.78
2019-05-18T22:09:01.138Z,7.12
2019-05-18T22:11:29.896Z,6.55
2019-05-18T22:13:58.844Z,6.62
2019-05-18T22:16:27.566Z,6.55
2019-05-18T22:18:56.768Z,6.37
2019-05-18T22:21:25.433Z,6.55
2019-05-18T22:23:54.235Z,6.87
2019-05-18T22:26:22.869Z,7.83
2019-05-18T22:28:52.043Z,6.25
2019-05-18T22:31:20.723Z,6.62
2019-05-18T22:33:49.486Z,6.60
2019-05-18T22:36:18.254Z,6.28
2019-05-18T22:38:46.925Z,6.83
2019-05-18T22:41:15.852Z,7.15
2019-05-18T22:43:44.607Z,6.83
2019-05-18T22:46:13.628Z,6.92
2019-05-18T22:48:43.253Z,6.60
2019-05-18T22:51:14.594Z,7.60
2019-05-18T22:53:46.489Z,6.45
2019-05-18T22:56:14.252Z,7.05
2019-05-18T22:58:42.924Z,8.13
2019-05-18T23:01:11.692Z,6.42
2019-05-18T23:03:40.372Z,5.80
2019-05-18T23:06:09.426Z,6.40
2019-05-18T23:08:38.374Z,6.53
2019-05-18T23:11:07.146Z,6.33
2019-05-18T23:13:35.840Z,7.33
2019-05-18T23:16:04.862Z,7.00
2019-05-18T23:18:33.631Z,6.55
2019-05-18T23:21:04.613Z,6.80
2019-05-18T23:23:36.120Z,6.90
2019-05-18T23:26:05.399Z,7.33
2019-05-18T23:28:34.342Z,6.87
2019-05-18T23:31:03.040Z,6.33
2019-05-18T23:33:31.981Z,7.12
2019-05-18T23:36:00.692Z,7.85
2019-05-18T23:38:29.742Z,6.70
2019-05-18T23:40:58.452Z,7.08
2019-05-18T23:43:27.391Z,9.58
2019-05-18T23:45:56.773Z,7.17
2019-05-18T23:48:27.606Z,7.53
2019-05-18T23:50:57.129Z,7.20
2019-05-18T23:53:25.875Z,7.67
2019-05-18T23:55:54.568Z,7.80
2019-05-18T23:58:23.236Z,7.30
